CheckWX is a tool to help pilots better visualize weather data.  It is not intended as a substitute for an official pre-flight weather briefing.

03:34:13 UTC

KSPS METAR
Sheppard AFB / Wichita Falls Municipal Airport
Wichita Falls, Texas, USA
Current

42 mins ago

KSPS 210252Z AUTO 01010KT 10SM CLR 01/M03 A3071 RMK AO2 SLP404 T00061028 51020
Observed
Feb-21 @ 02:52 UTC
Wind
  • 010° at 10 KTS
Visibility
10 SM
Flight Rules
VFR
Cloud Levels
  • Clear skies
Temperature
C / 34°F
Dewpoint
-3°C / 27°F
Humidity
75%
Altimeter
30.71" Hg
Pressure
1039.92 hPa
Previous

2 hours ago

KSPS 210152Z AUTO 01009KT 10SM CLR 01/M03 A3069 RMK AO2 SLP396 T00111028
Observed
Feb-21 @ 01:52 UTC
Wind
  • 010° at 9 KTS
Visibility
10 SM
Flight Rules
VFR
Cloud Levels
  • Clear skies
Temperature
C / 34°F
Dewpoint
-3°C / 27°F
Humidity
75%
Altimeter
30.69" Hg
Pressure
1039.32 hPa
Previous

3 hours ago

KSPS 210052Z 36008KT 10SM CLR 02/M03 A3067 RMK AO2 SLP390 T00221028
Observed
Feb-21 @ 00:52 UTC
Wind
  • 360° at 8 KTS
Visibility
10 SM
Flight Rules
VFR
Cloud Levels
  • Clear skies
Temperature
C / 36°F
Dewpoint
-3°C / 27°F
Humidity
70%
Altimeter
30.67" Hg
Pressure
1038.62 hPa